Time;durP1;ratioP1;P1;durP2;ratioP2;P2;SDS_P1;SDS_P2;PMS_P1;PMS_P2;Temp;Humidity;BMP_temperature;BMP_pressure;BME280_temperature;BME280_humidity;BME280_pressure;Samples;Min_cycle;Max_cycle;Signal;HPM_P1;HPM_P2
2023/09/09 00:00:49;;;;;;;14.55;11.65;;;20.20;99.90;;;;;;4974853;28;20129;-63
2023/09/09 00:03:15;;;;;;;15.55;12.43;;;20.20;99.90;;;;;;4983169;28;20042;-64
2023/09/09 00:05:41;;;;;;;14.23;12.15;;;20.20;99.90;;;;;;4992552;28;20117;-64
2023/09/09 00:08:07;;;;;;;14.68;12.40;;;20.20;99.90;;;;;;4990004;28;20046;-64
2023/09/09 00:10:36;;;;;;;17.05;14.32;;;20.20;99.90;;;;;;4994136;28;20030;-64
2023/09/09 00:13:03;;;;;;;16.30;14.57;;;20.10;99.90;;;;;;4970784;28;20050;-64
2023/09/09 00:15:30;;;;;;;18.58;15.48;;;20.10;99.90;;;;;;4993171;28;20042;-64
2023/09/09 00:17:56;;;;;;;19.75;17.38;;;20.10;99.90;;;;;;4975860;28;20054;-64
2023/09/09 00:20:33;;;;;;;21.52;16.48;;;20.10;99.90;;;;;;4993633;28;20407;-64
2023/09/09 00:23:02;;;;;;;19.23;17.10;;;20.10;99.90;;;;;;4993613;28;20047;-64
2023/09/09 00:25:29;;;;;;;22.00;17.25;;;20.00;99.90;;;;;;4975515;28;20054;-64
2023/09/09 00:27:55;;;;;;;20.23;16.70;;;20.00;99.90;;;;;;4990827;28;20053;-63
2023/09/09 00:30:20;;;;;;;18.88;16.60;;;20.00;99.90;;;;;;4990404;28;20042;-64
2023/09/09 00:32:46;;;;;;;21.17;16.48;;;20.00;99.90;;;;;;4991282;28;20549;-64
2023/09/09 00:35:11;;;;;;;14.05;11.45;;;20.00;99.90;;;;;;4991536;28;20092;-64
2023/09/09 00:37:37;;;;;;;12.43;10.82;;;19.90;99.90;;;;;;4993764;28;20049;-64
2023/09/09 00:40:04;;;;;;;15.80;11.25;;;19.90;99.90;;;;;;4998998;28;20393;-64
2023/09/09 00:42:29;;;;;;;14.77;10.95;;;19.90;99.90;;;;;;5004969;28;20040;-64
2023/09/09 00:44:55;;;;;;;14.20;12.70;;;19.80;99.90;;;;;;4999052;28;20121;-64
2023/09/09 00:47:21;;;;;;;16.40;13.55;;;19.80;99.90;;;;;;4983133;28;20523;-64
2023/09/09 00:49:46;;;;;;;18.02;15.38;;;19.80;99.90;;;;;;4982951;28;20042;-64
2023/09/09 00:52:12;;;;;;;17.63;15.68;;;19.80;99.90;;;;;;5002444;28;20089;-64
2023/09/09 00:54:37;;;;;;;23.00;17.35;;;19.70;99.90;;;;;;4997201;28;20030;-64
2023/09/09 00:57:04;;;;;;;18.42;16.33;;;19.70;99.90;;;;;;4985614;28;20057;-64
2023/09/09 00:59:30;;;;;;;22.80;18.85;;;19.70;99.90;;;;;;4983989;28;20042;-64
2023/09/09 01:01:58;;;;;;;23.27;19.20;;;19.80;99.90;;;;;;5005130;28;20038;-64
2023/09/09 01:04:24;;;;;;;21.88;19.58;;;19.70;99.90;;;;;;4984807;28;20065;-64
2023/09/09 01:06:52;;;;;;;28.95;19.42;;;19.70;99.90;;;;;;4999097;28;21576;-64
2023/09/09 01:09:18;;;;;;;25.27;19.85;;;19.70;99.90;;;;;;4999933;28;20120;-64
2023/09/09 01:11:44;;;;;;;22.38;18.92;;;19.70;99.90;;;;;;4991028;28;20538;-64
2023/09/09 01:14:10;;;;;;;24.58;19.20;;;19.60;99.90;;;;;;4988653;28;20118;-64
2023/09/09 01:16:37;;;;;;;23.00;18.35;;;19.60;99.90;;;;;;4975592;28;20595;-64
2023/09/09 01:19:04;;;;;;;22.55;20.08;;;19.60;99.90;;;;;;4987481;28;20038;-64
2023/09/09 01:21:32;;;;;;;24.55;20.13;;;19.60;99.90;;;;;;4976090;28;20101;-64
2023/09/09 01:23:58;;;;;;;21.80;19.50;;;19.60;99.90;;;;;;4971616;28;20046;-64
2023/09/09 01:26:23;;;;;;;22.98;20.38;;;19.60;99.90;;;;;;4995259;28;20030;-64
2023/09/09 01:28:49;;;;;;;22.58;19.40;;;19.50;99.90;;;;;;4973376;28;20039;-64
2023/09/09 01:31:14;;;;;;;23.88;19.83;;;19.50;99.90;;;;;;5013373;22;20136;-74
2023/09/09 01:33:40;;;;;;;24.60;20.67;;;19.50;99.90;;;;;;5009362;28;20053;-75
2023/09/09 01:36:11;;;;;;;27.95;22.55;;;19.50;99.90;;;;;;5032607;28;20041;-75
2023/09/09 01:38:36;;;;;;;24.38;21.30;;;19.50;99.90;;;;;;5030926;28;20124;-75
2023/09/09 01:41:12;;;;;;;25.50;20.95;;;19.50;99.90;;;;;;5032479;28;20076;-75
2023/09/09 01:43:38;;;;;;;23.90;20.63;;;19.40;99.90;;;;;;5020151;28;20040;-74
2023/09/09 01:46:03;;;;;;;24.92;20.40;;;19.50;99.90;;;;;;5032207;28;20041;-74
2023/09/09 01:48:29;;;;;;;24.27;19.92;;;19.40;99.90;;;;;;5030897;28;20041;-74
2023/09/09 01:50:59;;;;;;;22.80;20.23;;;19.30;99.90;;;;;;5023839;28;20041;-75
2023/09/09 01:53:25;;;;;;;21.58;19.25;;;19.30;99.90;;;;;;5030980;28;20037;-74
2023/09/09 01:55:51;;;;;;;21.42;19.15;;;19.30;99.90;;;;;;4996798;28;20113;-74
2023/09/09 01:58:16;;;;;;;21.08;17.63;;;19.30;99.90;;;;;;5022062;28;20037;-74
2023/09/09 02:00:42;;;;;;;17.35;15.55;;;19.30;99.90;;;;;;5017929;28;20049;-74
2023/09/09 02:03:08;;;;;;;22.85;16.20;;;19.20;99.90;;;;;;5017144;28;20053;-74
2023/09/09 02:05:35;;;;;;;19.48;17.42;;;19.10;99.90;;;;;;5013951;28;20479;-75
2023/09/09 02:08:04;;;;;;;23.63;19.45;;;19.20;99.90;;;;;;5016217;28;20038;-74
2023/09/09 02:10:30;;;;;;;23.33;19.83;;;19.20;99.90;;;;;;5014353;28;20072;-74
2023/09/09 02:12:56;;;;;;;25.38;21.58;;;19.00;99.90;;;;;;5024940;28;20049;-74
2023/09/09 02:15:24;;;;;;;24.17;21.13;;;19.10;99.90;;;;;;5014131;28;20449;-74
2023/09/09 02:17:57;;;;;;;25.98;21.90;;;19.10;99.90;;;;;;5034284;28;20830;-74
2023/09/09 02:20:24;;;;;;;26.42;22.08;;;19.10;99.90;;;;;;5018472;28;20056;-75
2023/09/09 02:22:53;;;;;;;26.25;23.45;;;19.10;99.90;;;;;;5008237;28;20046;-74
2023/09/09 02:25:19;;;;;;;26.95;24.05;;;19.10;99.90;;;;;;5036790;28;20041;-74
2023/09/09 02:27:48;;;;;;;28.73;25.10;;;19.10;99.90;;;;;;5018395;28;20486;-75
2023/09/09 02:30:16;;;;;;;30.00;24.92;;;19.10;99.90;;;;;;5036376;28;20041;-75
2023/09/09 02:32:46;;;;;;;30.17;25.80;;;19.10;99.90;;;;;;5035270;28;20033;-74
2023/09/09 02:35:18;;;;;;;30.65;26.60;;;19.10;99.90;;;;;;5033877;28;20038;-74
2023/09/09 02:37:44;;;;;;;32.15;26.60;;;19.00;99.90;;;;;;5013575;28;20052;-75
2023/09/09 02:40:52;;;;;;;27.15;24.25;;;19.00;99.90;;;;;;5037672;28;20037;-74
2023/09/09 02:43:18;;;;;;;28.92;24.45;;;19.00;99.90;;;;;;5034935;28;20087;-74
2023/09/09 02:45:44;;;;;;;28.27;23.27;;;19.20;99.90;;;;;;5025462;28;20042;-75
2023/09/09 02:48:10;;;;;;;23.02;20.38;;;19.00;99.90;;;;;;5020640;28;20037;-74
2023/09/09 02:50:36;;;;;;;20.58;18.33;;;18.90;99.90;;;;;;5023427;28;20052;-75
2023/09/09 02:53:02;;;;;;;23.67;19.88;;;18.90;99.90;;;;;;5020312;28;20453;-74
2023/09/09 02:55:31;;;;;;;23.88;21.00;;;18.90;99.90;;;;;;5019150;28;20092;-73
2023/09/09 02:58:00;;;;;;;24.80;21.40;;;18.90;99.90;;;;;;5022338;28;20057;-73
2023/09/09 03:00:27;;;;;;;23.52;20.90;;;18.80;99.90;;;;;;5022584;28;20052;-74
2023/09/09 03:02:53;;;;;;;25.70;21.70;;;18.80;99.90;;;;;;5035919;28;20520;-74
2023/09/09 03:05:19;;;;;;;26.02;21.55;;;18.80;99.90;;;;;;5034162;28;20034;-74
2023/09/09 03:07:48;;;;;;;23.70;20.67;;;18.70;99.90;;;;;;5017531;28;20025;-74
2023/09/09 03:10:14;;;;;;;24.73;21.95;;;18.70;99.90;;;;;;5036863;28;20466;-73
2023/09/09 03:12:40;;;;;;;24.65;21.92;;;18.70;99.90;;;;;;5036470;28;20042;-74
2023/09/09 03:15:06;;;;;;;25.52;20.65;;;18.70;99.90;;;;;;5035372;28;20037;-74
2023/09/09 03:17:32;;;;;;;24.17;21.60;;;18.70;99.90;;;;;;5021730;28;20041;-73
2023/09/09 03:19:59;;;;;;;26.67;21.50;;;18.60;99.90;;;;;;5022628;28;20058;-74
2023/09/09 03:22:28;;;;;;;23.90;21.38;;;18.60;99.90;;;;;;5036855;28;20607;-73
2023/09/09 03:24:54;;;;;;;22.75;20.27;;;18.60;99.90;;;;;;5020183;28;20045;-74
2023/09/09 03:27:22;;;;;;;24.95;21.63;;;18.60;99.90;;;;;;5033746;28;20044;-74
2023/09/09 03:29:48;;;;;;;23.02;20.52;;;18.60;99.90;;;;;;5027599;28;20037;-74
2023/09/09 03:32:14;;;;;;;24.75;21.20;;;18.60;99.90;;;;;;5036048;28;20099;-74
2023/09/09 03:34:40;;;;;;;25.90;22.25;;;18.60;99.90;;;;;;5035872;28;20060;-74
2023/09/09 03:37:06;;;;;;;25.73;22.20;;;18.60;99.90;;;;;;5029520;28;20037;-74
2023/09/09 03:39:33;;;;;;;25.55;22.85;;;18.60;99.90;;;;;;5019702;28;20125;-74
2023/09/09 03:42:00;;;;;;;26.52;22.92;;;18.60;99.90;;;;;;5037239;28;20478;-74
2023/09/09 03:44:26;;;;;;;25.90;22.73;;;18.60;99.90;;;;;;5032176;28;20117;-74
2023/09/09 03:46:52;;;;;;;34.70;22.95;;;18.50;99.90;;;;;;5033844;28;20042;-74
2023/09/09 03:49:17;;;;;;;23.65;19.20;;;18.60;99.90;;;;;;5022954;28;20041;-74
2023/09/09 03:51:44;;;;;;;20.20;18.08;;;18.50;99.90;;;;;;5036609;28;20120;-74
2023/09/09 03:54:10;;;;;;;20.70;18.50;;;18.50;99.90;;;;;;5041717;28;20036;-74
2023/09/09 03:56:36;;;;;;;23.25;20.23;;;18.50;99.90;;;;;;5034331;28;20034;-74
2023/09/09 03:59:05;;;;;;;22.20;19.88;;;18.50;99.90;;;;;;5016243;28;20065;-74
2023/09/09 04:01:31;;;;;;;24.25;20.83;;;18.50;99.90;;;;;;5040462;28;20543;-74
2023/09/09 04:03:56;;;;;;;24.25;21.05;;;18.40;99.90;;;;;;5040111;28;20432;-74
2023/09/09 04:06:22;;;;;;;25.23;20.83;;;18.40;99.90;;;;;;5018570;28;20047;-74
2023/09/09 04:08:55;;;;;;;23.35;20.73;;;18.40;99.90;;;;;;5020468;28;20105;-74
2023/09/09 04:11:21;;;;;;;24.02;20.20;;;18.40;99.90;;;;;;5004062;28;20045;-74
2023/09/09 04:13:48;;;;;;;24.63;22.02;;;18.40;99.90;;;;;;5018400;28;20049;-74
2023/09/09 04:16:14;;;;;;;26.02;23.27;;;18.40;99.90;;;;;;5022079;28;20034;-74
2023/09/09 04:18:40;;;;;;;27.83;23.05;;;18.40;99.90;;;;;;5028869;28;20044;-74
2023/09/09 04:21:08;;;;;;;25.83;22.55;;;18.40;99.90;;;;;;5019887;28;20041;-74
2023/09/09 04:23:34;;;;;;;18.38;16.48;;;18.40;99.90;;;;;;5009020;28;20046;-74
2023/09/09 04:26:00;;;;;;;13.68;12.35;;;18.30;99.90;;;;;;5002629;28;20053;-74
2023/09/09 04:28:28;;;;;;;15.07;13.35;;;18.30;99.90;;;;;;5027937;28;20041;-74
2023/09/09 04:31:07;;;;;;;15.45;13.85;;;18.20;99.90;;;;;;4995300;28;20100;-74
2023/09/09 04:33:36;;;;;;;15.57;13.98;;;18.20;99.90;;;;;;5018077;28;20041;-74
2023/09/09 04:36:07;;;;;;;16.05;14.45;;;18.20;99.90;;;;;;5002528;28;20557;-74
2023/09/09 04:38:32;;;;;;;18.95;16.95;;;18.10;99.90;;;;;;5034952;28;20112;-74
2023/09/09 04:40:58;;;;;;;19.70;17.60;;;18.10;99.90;;;;;;5033622;28;20107;-74
2023/09/09 04:43:23;;;;;;;21.40;19.10;;;18.10;99.90;;;;;;5035855;28;20037;-74
2023/09/09 04:45:49;;;;;;;23.98;21.40;;;18.10;99.90;;;;;;5033551;28;20490;-74
2023/09/09 04:48:14;;;;;;;27.85;23.90;;;18.10;99.90;;;;;;5034576;28;20041;-74
2023/09/09 04:50:44;;;;;;;28.35;25.33;;;18.10;99.90;;;;;;5034293;28;20129;-74
2023/09/09 04:53:09;;;;;;;29.77;26.48;;;18.10;99.90;;;;;;5023986;28;20120;-74
2023/09/09 04:55:35;;;;;;;36.35;27.23;;;18.10;99.90;;;;;;5036969;28;20073;-74
2023/09/09 04:58:00;;;;;;;29.15;25.73;;;18.10;99.90;;;;;;5034012;28;20065;-74
2023/09/09 05:00:26;;;;;;;30.35;26.25;;;18.10;99.90;;;;;;5031552;28;20037;-74
2023/09/09 05:02:52;;;;;;;27.90;24.90;;;18.10;99.90;;;;;;5031384;28;20462;-75
2023/09/09 05:05:18;;;;;;;28.23;23.85;;;18.00;99.90;;;;;;5014938;28;20106;-76
2023/09/09 05:07:48;;;;;;;28.50;24.23;;;18.00;99.90;;;;;;5010396;28;20065;-77
2023/09/09 05:10:13;;;;;;;27.10;24.20;;;18.00;99.90;;;;;;4997134;28;20109;-77
2023/09/09 05:12:41;;;;;;;32.00;25.90;;;17.90;99.90;;;;;;5031685;28;20065;-77
2023/09/09 05:15:10;;;;;;;30.48;26.48;;;18.00;99.90;;;;;;5022431;28;20045;-77
2023/09/09 05:17:35;;;;;;;28.75;24.55;;;18.00;99.90;;;;;;5017534;28;20045;-76
2023/09/09 05:20:02;;;;;;;27.50;23.00;;;18.00;99.90;;;;;;5016445;28;20159;-77
2023/09/09 05:22:28;;;;;;;30.92;23.60;;;18.00;99.90;;;;;;5003751;28;20045;-76
2023/09/09 05:24:54;;;;;;;27.45;23.00;;;17.80;99.90;;;;;;5037115;28;20042;-76
2023/09/09 05:27:31;;;;;;;27.85;22.63;;;18.00;99.90;;;;;;5036884;28;20555;-77
2023/09/09 05:29:57;;;;;;;25.00;22.02;;;17.90;99.90;;;;;;5036293;28;20107;-76
2023/09/09 05:32:22;;;;;;;25.63;22.33;;;17.90;99.90;;;;;;5019974;28;20486;-75
2023/09/09 05:34:48;;;;;;;25.45;22.67;;;17.90;99.90;;;;;;5033457;28;20037;-76
2023/09/09 05:37:13;;;;;;;26.40;23.50;;;17.90;99.90;;;;;;5033657;28;20099;-75
2023/09/09 05:39:39;;;;;;;27.88;24.85;;;17.90;99.90;;;;;;5034274;28;20120;-75
2023/09/09 05:42:06;;;;;;;30.33;25.38;;;18.00;99.90;;;;;;5033610;28;20534;-75
2023/09/09 05:44:36;;;;;;;28.90;25.52;;;18.00;99.90;;;;;;5001675;28;20127;-75
2023/09/09 05:47:02;;;;;;;31.15;26.40;;;18.00;99.90;;;;;;5028561;28;20046;-75
2023/09/09 05:49:28;;;;;;;26.35;23.55;;;18.00;99.90;;;;;;5013737;28;20068;-76
2023/09/09 05:51:54;;;;;;;24.20;21.73;;;18.00;99.90;;;;;;5003128;28;20041;-76
2023/09/09 05:54:23;;;;;;;25.48;21.55;;;18.00;99.90;;;;;;5013395;28;20048;-76
2023/09/09 05:56:49;;;;;;;27.35;23.75;;;18.00;99.90;;;;;;5009629;28;20072;-76
2023/09/09 05:59:14;;;;;;;25.80;23.13;;;17.90;99.90;;;;;;5018083;28;20079;-76
2023/09/09 06:01:42;;;;;;;26.42;20.65;;;18.10;99.90;;;;;;5004815;28;20041;-76
2023/09/09 06:04:07;;;;;;;19.50;17.63;;;18.10;99.90;;;;;;5010625;28;20045;-76
2023/09/09 06:06:33;;;;;;;20.65;18.52;;;18.00;99.90;;;;;;5033636;28;20038;-76
2023/09/09 06:09:00;;;;;;;22.48;20.15;;;18.00;99.90;;;;;;5037234;28;20095;-76
2023/09/09 06:11:32;;;;;;;23.65;21.25;;;18.00;99.90;;;;;;5015640;28;20050;-76
2023/09/09 06:13:57;;;;;;;26.40;23.27;;;18.00;99.90;;;;;;5017692;28;20053;-76
2023/09/09 06:16:25;;;;;;;27.60;24.63;;;18.00;99.90;;;;;;5002832;28;20040;-76
2023/09/09 06:18:51;;;;;;;30.02;26.20;;;18.00;99.90;;;;;;5001705;28;20056;-76
2023/09/09 06:21:17;;;;;;;31.27;27.73;;;18.00;99.90;;;;;;5017343;28;20034;-77
2023/09/09 06:23:47;;;;;;;34.05;27.95;;;18.30;99.90;;;;;;5036544;28;20034;-76
2023/09/09 06:26:36;;;;;;;35.60;29.05;;;18.10;99.90;;;;;;5020386;28;20041;-77
2023/09/09 06:29:02;;;;;;;41.83;31.65;;;18.10;99.90;;;;;;5014531;28;20040;-76
2023/09/09 06:31:27;;;;;;;44.53;34.78;;;18.10;99.90;;;;;;5034676;28;20282;-76
2023/09/09 06:33:53;;;;;;;43.13;36.38;;;18.20;99.90;;;;;;5028151;28;20040;-76
2023/09/09 06:37:11;;;;;;;44.65;36.55;;;18.10;99.90;;;;;;5022211;28;20457;-76
2023/09/09 06:39:37;;;;;;;45.00;37.38;;;18.20;99.90;;;;;;5036627;28;20100;-76
2023/09/09 06:42:05;;;;;;;46.42;39.03;;;18.30;99.90;;;;;;5033022;28;20029;-76
2023/09/09 06:44:31;;;;;;;43.88;36.75;;;18.40;99.90;;;;;;5028231;28;20040;-76
2023/09/09 06:46:57;;;;;;;47.53;40.58;;;18.70;99.90;;;;;;5032380;28;20037;-76
2023/09/09 06:49:22;;;;;;;46.10;38.55;;;18.50;99.90;;;;;;5021418;28;20111;-76
2023/09/09 06:51:48;;;;;;;50.22;41.22;;;18.50;99.90;;;;;;5034271;28;20037;-76
2023/09/09 06:54:13;;;;;;;46.92;40.25;;;18.70;99.90;;;;;;5034603;28;20077;-76
2023/09/09 06:56:39;;;;;;;53.60;41.90;;;18.70;99.90;;;;;;5025887;28;20055;-76
2023/09/09 06:59:05;;;;;;;47.22;41.45;;;18.70;99.90;;;;;;5016341;28;20049;-76
2023/09/09 07:01:30;;;;;;;46.63;41.30;;;18.60;99.90;;;;;;5017811;28;20049;-77
2023/09/09 07:03:57;;;;;;;48.80;41.70;;;18.70;99.90;;;;;;5020771;28;20049;-76
2023/09/09 07:06:31;;;;;;;46.08;40.35;;;18.80;99.90;;;;;;5018592;28;20045;-76
2023/09/09 07:08:57;;;;;;;50.35;42.20;;;18.90;99.90;;;;;;4997791;28;20051;-75
2023/09/09 07:11:23;;;;;;;47.22;40.78;;;19.30;99.90;;;;;;5031332;28;20037;-76
2023/09/09 07:14:36;;;;;;;52.00;43.13;;;19.00;99.90;;;;;;5018514;28;20041;-76
2023/09/09 07:17:46;;;;;;;50.10;42.97;;;19.10;99.90;;;;;;5022094;28;20076;-76
2023/09/09 07:20:27;;;;;;;55.55;45.70;;;19.50;99.90;;;;;;5035538;28;20060;-76
2023/09/09 07:22:59;;;;;;;52.58;44.95;;;19.20;99.90;;;;;;5036890;28;20041;-76
2023/09/09 07:25:25;;;;;;;53.60;42.00;;;19.30;99.90;;;;;;5008242;28;20048;-76
2023/09/09 07:27:50;;;;;;;51.63;44.08;;;19.30;99.90;;;;;;5022341;28;20037;-76
2023/09/09 07:30:18;;;;;;;58.22;48.22;;;19.50;99.90;;;;;;5036566;28;20046;-77
2023/09/09 07:32:44;;;;;;;62.58;48.45;;;19.40;99.90;;;;;;5035607;28;20033;-76
2023/09/09 07:35:10;;;;;;;60.40;49.85;;;19.50;99.90;;;;;;5019993;28;20042;-76
2023/09/09 07:37:35;;;;;;;65.82;52.35;;;19.60;99.90;;;;;;5036140;28;20037;-76
2023/09/09 07:40:06;;;;;;;61.38;51.30;;;19.70;99.90;;;;;;5009313;28;20041;-76
2023/09/09 07:42:32;;;;;;;63.58;52.30;;;19.70;99.90;;;;;;5034546;28;20041;-76
2023/09/09 07:44:57;;;;;;;62.25;53.17;;;20.00;99.90;;;;;;5011388;28;20115;-76
2023/09/09 07:47:26;;;;;;;64.72;52.72;;;19.80;99.90;;;;;;5031920;28;20468;-76
2023/09/09 07:49:55;;;;;;;60.47;52.28;;;19.90;99.90;;;;;;5028871;28;20040;-76
2023/09/09 07:52:21;;;;;;;59.88;50.28;;;19.90;99.90;;;;;;5001194;28;20041;-76
2023/09/09 07:54:49;;;;;;;63.67;50.70;;;19.90;99.90;;;;;;5016953;28;20060;-76
2023/09/09 07:57:15;;;;;;;60.03;50.67;;;20.50;99.90;;;;;;5034641;28;20064;-77
2023/09/09 07:59:42;;;;;;;61.63;51.25;;;20.20;99.90;;;;;;5016594;28;20042;-76
2023/09/09 08:02:12;;;;;;;62.67;51.72;;;20.00;99.90;;;;;;5017686;28;20044;-76
2023/09/09 08:04:37;;;;;;;62.92;51.08;;;20.10;99.90;;;;;;5013115;28;20449;-76
2023/09/09 08:07:03;;;;;;;61.63;52.38;;;20.10;99.90;;;;;;5023386;28;20053;-76
2023/09/09 08:09:33;;;;;;;63.50;52.97;;;20.20;99.90;;;;;;5020315;28;20057;-76
2023/09/09 08:12:46;;;;;;;64.88;53.42;;;20.20;99.90;;;;;;5034392;28;20077;-76
2023/09/09 08:15:25;;;;;;;64.30;53.03;;;20.30;99.90;;;;;;5000654;28;20480;-76
2023/09/09 08:17:53;;;;;;;67.25;54.60;;;20.30;99.90;;;;;;5003801;28;20070;-76
2023/09/09 08:20:19;;;;;;;67.68;54.70;;;20.50;99.90;;;;;;5008775;28;20034;-77
2023/09/09 08:22:46;;;;;;;71.20;56.33;;;20.70;99.90;;;;;;5017255;28;20060;-76
2023/09/09 08:25:32;;;;;;;74.72;57.17;;;20.50;99.90;;;;;;5027225;28;20040;-76
2023/09/09 08:28:28;;;;;;;66.90;54.42;;;21.00;99.90;;;;;;5017757;28;20071;-76
2023/09/09 08:31:00;;;;;;;73.70;58.50;;;20.70;99.90;;;;;;5024760;28;20475;-76
2023/09/09 08:34:12;;;;;;;74.40;58.00;;;20.80;99.90;;;;;;5036464;28;20073;-76
2023/09/09 08:37:05;;;;;;;;;;;20.90;99.90;;;;;;5018472;28;20084;-76
2023/09/09 08:39:31;;;;;;;67.05;53.83;;;21.00;99.90;;;;;;5007393;28;19917;-76
2023/09/09 08:42:31;;;;;;;64.18;52.97;;;21.00;99.90;;;;;;5017693;28;20500;-76
2023/09/09 08:45:32;;;;;;;66.90;54.70;;;21.10;99.90;;;;;;5009065;28;20072;-76
2023/09/09 08:48:02;;;;;;;72.07;56.87;;;21.20;99.90;;;;;;5011651;28;20041;-76
2023/09/09 08:50:34;;;;;;;62.95;52.65;;;21.40;99.90;;;;;;5033430;28;20364;-76
2023/09/09 08:53:02;;;;;;;69.95;54.28;;;21.40;99.90;;;;;;5016543;28;20056;-76
2023/09/09 08:55:28;;;;;;;65.30;52.65;;;21.50;99.90;;;;;;5016166;28;20223;-76
2023/09/09 08:57:54;;;;;;;59.00;52.15;;;21.60;99.90;;;;;;5022188;28;20045;-76
2023/09/09 09:00:20;;;;;;;65.20;51.40;;;21.70;99.90;;;;;;5018959;28;20115;-76
2023/09/09 09:02:50;;;;;;;64.10;51.22;;;21.80;99.90;;;;;;5021764;28;20528;-76
2023/09/09 09:05:41;;;;;;;;;;;22.00;99.90;;;;;;5028197;28;20048;-77
2023/09/09 09:08:17;;;;;;;59.75;51.30;;;22.00;99.90;;;;;;5019631;28;19924;-76
2023/09/09 09:10:47;;;;;;;;;;;22.60;99.90;;;;;;5031808;28;20056;-76
2023/09/09 09:13:15;;;;;;;56.63;48.85;;;22.40;99.90;;;;;;5017267;28;19921;-76
2023/09/09 09:15:42;;;;;;;;;;;22.60;99.90;;;;;;5018674;28;20377;-76
2023/09/09 09:18:14;;;;;;;54.10;44.53;;;22.80;99.90;;;;;;5012971;28;20369;-76
2023/09/09 09:20:49;;;;;;;;;;;23.10;99.90;;;;;;5017068;28;20096;-77
2023/09/09 09:23:24;;;;;;;49.42;43.75;;;23.30;99.90;;;;;;5034365;28;19987;-77
2023/09/09 09:25:51;;;;;;;;;;;23.60;99.90;;;;;;4999728;28;20041;-76
2023/09/09 09:28:17;;;;;;;50.13;44.30;;;23.70;99.90;;;;;;5009247;28;19917;-76
2023/09/09 09:30:43;;;;;;;;;;;23.70;99.90;;;;;;5020764;28;20037;-76
2023/09/09 09:33:08;;;;;;;50.90;42.25;;;24.20;99.90;;;;;;5032383;28;19961;-76
2023/09/09 09:35:38;;;;;;;48.80;43.10;;;24.40;99.90;;;;;;5033222;28;20053;-77
2023/09/09 09:38:09;;;;;;;;;;;24.50;99.90;;;;;;5019971;28;20074;-77
2023/09/09 09:41:14;;;;;;;44.63;36.17;;;24.60;99.90;;;;;;5010457;28;19928;-77
2023/09/09 09:43:41;;;;;;;35.35;31.48;;;24.90;99.90;;;;;;5014262;28;20139;-77
2023/09/09 09:46:38;;;;;;;38.45;34.75;;;25.70;99.90;;;;;;5033006;28;20402;-76
2023/09/09 09:49:45;;;;;;;35.28;31.58;;;25.40;99.90;;;;;;4995381;28;20070;-77
2023/09/09 09:52:58;;;;;;;33.35;29.80;;;25.60;99.90;;;;;;5015531;28;20056;-77
2023/09/09 09:55:31;;;;;;;33.13;29.80;;;25.60;99.90;;;;;;5008640;28;20041;-77
2023/09/09 09:58:10;;;;;;;28.00;25.13;;;25.80;99.90;;;;;;5014334;28;20037;-77
2023/09/09 10:00:39;;;;;;;47.13;26.17;;;26.00;99.90;;;;;;5002713;28;20072;-77
2023/09/09 10:03:06;;;;;;;27.10;23.73;;;26.20;99.90;;;;;;5014413;28;20065;-77
2023/09/09 10:05:34;;;;;;;28.25;24.35;;;26.50;99.90;;;;;;5013913;28;20045;-77
2023/09/09 10:08:16;;;;;;;27.60;24.02;;;26.70;99.90;;;;;;5031958;28;20049;-77
2023/09/09 10:11:12;;;;;;;30.70;25.83;;;27.10;99.90;;;;;;4997995;28;20524;-77
2023/09/09 10:14:00;;;;;;;28.30;25.20;;;27.20;99.90;;;;;;5056431;22;20045;-66
2023/09/09 10:16:28;;;;;;;28.73;24.35;;;27.50;99.90;;;;;;5045455;28;20132;-65
2023/09/09 10:18:54;;;;;;;28.50;25.58;;;27.60;99.90;;;;;;5049881;28;20403;-66
2023/09/09 10:21:21;;;;;;;27.73;24.85;;;27.70;99.90;;;;;;5049150;28;20048;-65
2023/09/09 10:23:47;;;;;;;35.67;26.52;;;27.80;99.90;;;;;;5042271;28;20041;-66
2023/09/09 10:26:16;;;;;;;29.25;26.30;;;28.00;99.90;;;;;;5048970;28;20041;-66
2023/09/09 10:28:43;;;;;;;30.58;27.08;;;28.10;99.90;;;;;;5027950;28;20045;-66
2023/09/09 10:31:12;;;;;;;29.73;26.67;;;28.10;99.90;;;;;;5035484;28;20041;-66
2023/09/09 10:33:42;;;;;;;31.30;28.08;;;28.10;99.90;;;;;;5048969;28;20055;-65
2023/09/09 10:36:08;;;;;;;31.40;27.98;;;28.20;99.90;;;;;;5043853;28;20073;-66
2023/09/09 10:38:34;;;;;;;30.98;27.88;;;28.20;99.90;;;;;;5049401;28;20116;-66
2023/09/09 10:41:03;;;;;;;31.73;28.30;;;28.20;99.90;;;;;;5052916;28;20111;-66
2023/09/09 10:43:29;;;;;;;29.48;26.42;;;28.30;99.90;;;;;;5045721;28;20041;-66
2023/09/09 10:45:55;;;;;;;29.77;26.73;;;28.30;99.90;;;;;;5040673;28;20119;-66
2023/09/09 10:48:21;;;;;;;30.50;27.40;;;28.40;99.90;;;;;;5052210;28;20129;-66
2023/09/09 10:50:52;;;;;;;31.52;28.15;;;28.50;99.90;;;;;;5050252;28;20037;-65
2023/09/09 10:53:24;;;;;;;36.47;28.02;;;28.60;99.90;;;;;;5052542;28;20041;-66
2023/09/09 10:55:55;;;;;;;33.50;27.30;;;28.60;99.90;;;;;;5052520;28;20052;-66
2023/09/09 10:58:30;;;;;;;33.83;30.33;;;28.60;99.90;;;;;;5052870;28;20045;-66
2023/09/09 11:00:57;;;;;;;38.97;31.92;;;28.60;99.90;;;;;;5049294;28;20375;-66
2023/09/09 11:03:26;;;;;;;38.92;32.38;;;28.70;99.90;;;;;;5053018;28;20051;-66
2023/09/09 11:06:10;;;;;;;35.03;30.55;;;28.60;99.90;;;;;;5052701;28;20033;-66
2023/09/09 11:08:46;;;;;;;39.70;33.13;;;28.80;99.90;;;;;;5052592;28;20045;-66
2023/09/09 11:11:26;;;;;;;44.15;36.92;;;28.80;99.90;;;;;;5050638;28;20065;-66
2023/09/09 11:13:55;;;;;;;43.10;36.95;;;28.90;99.90;;;;;;5032120;28;20041;-66
2023/09/09 11:16:38;;;;;;;42.67;38.00;;;29.00;99.90;;;;;;5051692;28;20033;-66
2023/09/09 11:19:05;;;;;;;43.67;37.88;;;29.10;99.90;;;;;;5051432;28;20045;-66
2023/09/09 11:21:34;;;;;;;38.58;33.38;;;29.20;99.90;;;;;;5046668;28;20514;-66
2023/09/09 11:24:01;;;;;;;43.08;34.75;;;29.20;99.90;;;;;;5051735;28;20048;-66
2023/09/09 11:26:27;;;;;;;;;;;29.30;99.90;;;;;;5039140;28;20430;-66
2023/09/09 11:28:52;;;;;;;;;;;29.30;99.90;;;;;;5049787;28;19921;-66
2023/09/09 11:31:18;;;;;;;32.20;28.73;;;29.40;99.90;;;;;;5048027;28;20368;-66
2023/09/09 11:33:44;;;;;;;30.50;26.63;;;29.60;99.90;;;;;;5032686;28;20059;-66
2023/09/09 11:36:10;;;;;;;24.05;21.08;;;29.60;99.90;;;;;;5048545;28;20487;-66
2023/09/09 11:38:38;;;;;;;19.77;17.27;;;29.60;99.90;;;;;;5051431;28;20052;-66
2023/09/09 11:41:04;;;;;;;17.48;15.68;;;29.60;99.90;;;;;;5041582;28;20098;-66
2023/09/09 11:43:29;;;;;;;;;;;29.70;99.90;;;;;;5037120;28;20494;-66
2023/09/09 11:45:56;;;;;;;16.33;14.50;;;29.80;99.90;;;;;;5051199;28;19925;-66
2023/09/09 11:48:23;;;;;;;14.15;12.65;;;29.80;99.90;;;;;;5033988;28;20403;-66
2023/09/09 11:50:49;;;;;;;15.95;13.52;;;29.80;99.90;;;;;;5051674;28;20037;-67
2023/09/09 11:53:15;;;;;;;13.05;11.30;;;29.70;99.90;;;;;;5017398;28;20035;-67
2023/09/09 11:55:41;;;;;;;12.02;10.88;;;29.70;99.90;;;;;;5051761;28;20029;-66
2023/09/09 11:58:06;;;;;;;13.52;11.52;;;29.80;99.90;;;;;;5052017;28;20068;-67
2023/09/09 12:00:33;;;;;;;12.27;10.48;;;29.90;99.90;;;;;;5051691;28;20467;-66
2023/09/09 12:02:58;;;;;;;13.57;9.75;;;30.10;99.90;;;;;;5052242;28;20041;-66
2023/09/09 12:05:31;;;;;;;12.40;10.50;;;30.20;99.90;;;;;;5051697;28;20059;-66
2023/09/09 12:07:58;;;;;;;14.30;10.00;;;30.20;99.00;;;;;;5020480;28;20399;-66
2023/09/09 12:10:27;;;;;;;11.50;9.48;;;30.20;99.30;;;;;;5042269;28;20045;-66
2023/09/09 12:12:53;;;;;;;10.05;8.48;;;30.20;99.00;;;;;;5048110;28;20036;-66
2023/09/09 12:15:19;;;;;;;9.05;8.15;;;30.20;98.90;;;;;;5028227;28;20041;-66
2023/09/09 12:17:45;;;;;;;9.45;8.52;;;30.40;98.80;;;;;;5051606;28;20573;-66
2023/09/09 12:20:10;;;;;;;10.43;9.30;;;30.50;98.60;;;;;;5051507;28;20025;-66
2023/09/09 12:22:52;;;;;;;13.80;10.07;;;30.40;97.80;;;;;;5051380;28;20116;-66
2023/09/09 12:25:36;;;;;;;13.02;9.27;;;30.20;96.50;;;;;;5040609;28;20082;-66
2023/09/09 12:28:03;;;;;;;11.77;8.85;;;30.10;96.30;;;;;;5046102;28;20124;-66
2023/09/09 12:30:37;;;;;;;10.13;9.13;;;30.10;97.00;;;;;;5046018;28;20044;-65
2023/09/09 12:33:04;;;;;;;14.50;11.18;;;30.10;96.60;;;;;;5039735;28;20045;-65
2023/09/09 12:35:43;;;;;;;10.57;9.48;;;30.10;96.80;;;;;;5050964;28;20049;-66
2023/09/09 12:38:10;;;;;;;11.93;9.30;;;30.00;96.50;;;;;;5051217;28;20045;-66
2023/09/09 12:40:45;;;;;;;11.57;9.70;;;30.00;96.60;;;;;;5041918;28;20095;-66
2023/09/09 12:43:11;;;;;;;9.57;8.57;;;30.00;96.60;;;;;;5051134;28;20391;-66